Crew | Aerofun Virtual



 METAR AND TAF INFORMATION
METAR FOR NTAA
ADDS - METARS form results

(1548 UTC 12 December 2019)
Data provider http://aviationweather.gov/metar/data/
 
METAR text: NTAA 121530Z AUTO 12003KT 9999 -RA FEW017/// SCT062/// BKN160/// 25/23 Q1010
Conditions at: NTAA (TAHITI-FAAA POLY, WS) observed 1530 UTC 12 December 2019
Temperature: 25.0°C (77°F)
Dewpoint: 23.0°C (73°F) [RH = 89%]
Pressure (altimeter): 29.82 inches Hg (1010.0 mb)
Winds: from the ESE (120 degrees) at 3 MPH (3 knots; 1.5 m/s)
Visibility: 6 or more miles (10+ km)
Ceiling: 16000 feet AGL
Clouds: few clouds at 1700 feet AGL
scattered clouds at 6200 feet AGL
broken clouds at 16000 feet AGL
Weather: -RA  (light rain)

METAR text: NTAA 121500Z AUTO 08005KT 9999 -RA SCT015/// BKN034/// BKN066/// 25/23 Q1010
Conditions at: NTAA (TAHITI-FAAA POLY, WS) observed 1500 UTC 12 December 2019
Temperature: 25.0°C (77°F)
Dewpoint: 23.0°C (73°F) [RH = 89%]
Pressure (altimeter): 29.82 inches Hg (1010.0 mb)
Winds: from the E (80 degrees) at 6 MPH (5 knots; 2.6 m/s)
Visibility: 6 or more miles (10+ km)
Ceiling: 3400 feet AGL
Clouds: scattered clouds at 1500 feet AGL
broken clouds at 3400 feet AGL
broken clouds at 6600 feet AGL
Weather: -RA  (light rain)

Forecast for: NTAA (TAHITI-FAAA POLY, WS)
Text: TAF NTAA 121100Z 1212/1318 VRB05KT 9999 FEW023TCU BKN130
Forecast period: 1200 UTC 12 December 2019 to 1800 UTC 13 December 2019
Forecast type: FROM: standard forecast or significant change
Winds: variable direction winds at 6 MPH (5 knots; 2.6 m/s)
Visibility: 6 or more miles 10+ km)
Ceiling: 13000 feet AGL
Clouds: few clouds at 2300 feet AGL
broken clouds at 13000 feet AGL
Weather: no significant weather forecast for this period
Text: PROB30
Forecast period: 1500 UTC 12 December 2019 to 1800 UTC 13 December 2019
Forecast type: TEMPORARY: The following changes expected for less than half the time period
Visibility: 1.86 miles (2.99 km)
Ceiling: 4000 feet AGL
Clouds: scattered clouds at 1500 feet AGL
broken clouds at 4000 feet AGL
Weather: SHRA  (rain showers)

 AIRPORT MAP

 RUNWAY INFORMATION
Runway 04 Runway length 11360 ft Runway width 148 ft
Runway elevation 5 ft Runway displaced threshold 1120 ft Runway heading 54
Runway 22 Runway length 11360 ft Runway width 148 ft
Runway elevation 5 ft Runway displaced threshold 390 ft Runway heading 234

 AIRPORT FREQUENCIES
Type APP Name APP Frequency 118.1 MHZ
Type ATIS Name ATIS Frequency 128.8 MHZ
Type GND Name GND Frequency 121.9 MHZ
Type TWR Name TWR Frequency 118.1 MHZ

 AIRPORT NEAR NAVIGATION AIDS
Type NDB Name Tahiti Faaa Frequency 305 KHZ
Type VOR-DME Name Tahiti Faaa Frequency 112900 KHZ